sensor_id;sensor_type;location;lat;lon;timestamp;temperature;humidity
34985;DHT22;21190;58.750;17.004;2022-10-14T00:00:43;10.30;99.90
34985;DHT22;21190;58.750;17.004;2022-10-14T00:03:10;10.30;99.90
34985;DHT22;21190;58.750;17.004;2022-10-14T00:05:40;10.30;99.90
34985;DHT22;21190;58.750;17.004;2022-10-14T00:08:08;10.30;99.90
34985;DHT22;21190;58.750;17.004;2022-10-14T00:10:36;10.20;99.90
34985;DHT22;21190;58.750;17.004;2022-10-14T00:13:03;10.20;99.90
34985;DHT22;21190;58.750;17.004;2022-10-14T00:15:30;10.20;99.90
34985;DHT22;21190;58.750;17.004;2022-10-14T00:17:56;10.20;99.90
34985;DHT22;21190;58.750;17.004;2022-10-14T00:20:23;10.20;99.90
34985;DHT22;21190;58.750;17.004;2022-10-14T00:22:50;10.10;99.90
34985;DHT22;21190;58.750;17.004;2022-10-14T00:25:17;10.10;99.90
34985;DHT22;21190;58.750;17.004;2022-10-14T00:27:44;10.10;99.90
34985;DHT22;21190;58.750;17.004;2022-10-14T00:30:11;10.00;99.90
34985;DHT22;21190;58.750;17.004;2022-10-14T00:32:38;10.10;99.90
34985;DHT22;21190;58.750;17.004;2022-10-14T00:35:05;10.00;99.90
34985;DHT22;21190;58.750;17.004;2022-10-14T00:37:32;10.00;99.90
34985;DHT22;21190;58.750;17.004;2022-10-14T00:39:59;10.00;99.90
34985;DHT22;21190;58.750;17.004;2022-10-14T00:42:26;10.00;99.90
34985;DHT22;21190;58.750;17.004;2022-10-14T00:45:26;10.00;99.90
34985;DHT22;21190;58.750;17.004;2022-10-14T00:47:46;10.00;99.90
34985;DHT22;21190;58.750;17.004;2022-10-14T00:50:15;10.00;99.90
34985;DHT22;21190;58.750;17.004;2022-10-14T00:52:42;10.00;99.90
34985;DHT22;21190;58.750;17.004;2022-10-14T00:55:14;10.00;99.90
34985;DHT22;21190;58.750;17.004;2022-10-14T00:57:41;10.00;99.90
34985;DHT22;21190;58.750;17.004;2022-10-14T01:00:10;10.10;99.90
34985;DHT22;21190;58.750;17.004;2022-10-14T01:02:37;10.20;99.90
34985;DHT22;21190;58.750;17.004;2022-10-14T01:05:05;10.20;99.90
34985;DHT22;21190;58.750;17.004;2022-10-14T01:07:47;10.20;99.90
34985;DHT22;21190;58.750;17.004;2022-10-14T01:10:30;10.20;99.90
34985;DHT22;21190;58.750;17.004;2022-10-14T01:20:56;10.20;99.90
34985;DHT22;21190;58.750;17.004;2022-10-14T01:31:25;10.20;99.90
34985;DHT22;21190;58.750;17.004;2022-10-14T01:33:55;10.20;99.90
34985;DHT22;21190;58.750;17.004;2022-10-14T01:36:24;10.20;99.90
34985;DHT22;21190;58.750;17.004;2022-10-14T01:39:02;10.20;99.90
34985;DHT22;21190;58.750;17.004;2022-10-14T01:41:35;10.20;99.90
34985;DHT22;21190;58.750;17.004;2022-10-14T01:44:06;10.20;99.90
34985;DHT22;21190;58.750;17.004;2022-10-14T01:46:34;10.20;99.90
34985;DHT22;21190;58.750;17.004;2022-10-14T01:49:07;10.20;99.90
34985;DHT22;21190;58.750;17.004;2022-10-14T01:51:38;10.20;99.90
34985;DHT22;21190;58.750;17.004;2022-10-14T01:54:11;10.20;99.90
34985;DHT22;21190;58.750;17.004;2022-10-14T01:56:39;10.20;99.90
34985;DHT22;21190;58.750;17.004;2022-10-14T01:59:08;10.20;99.90
34985;DHT22;21190;58.750;17.004;2022-10-14T02:01:36;10.20;99.90
34985;DHT22;21190;58.750;17.004;2022-10-14T02:04:11;10.20;99.90
34985;DHT22;21190;58.750;17.004;2022-10-14T02:06:39;10.20;99.90
34985;DHT22;21190;58.750;17.004;2022-10-14T02:24:09;10.20;99.90
34985;DHT22;21190;58.750;17.004;2022-10-14T02:26:38;10.20;99.90
34985;DHT22;21190;58.750;17.004;2022-10-14T02:29:06;10.20;99.90
34985;DHT22;21190;58.750;17.004;2022-10-14T02:31:33;10.10;99.90
34985;DHT22;21190;58.750;17.004;2022-10-14T02:34:02;10.10;99.90
34985;DHT22;21190;58.750;17.004;2022-10-14T02:36:30;10.10;99.90
34985;DHT22;21190;58.750;17.004;2022-10-14T02:38:58;10.10;99.90
34985;DHT22;21190;58.750;17.004;2022-10-14T02:41:27;10.10;99.90
34985;DHT22;21190;58.750;17.004;2022-10-14T02:43:57;10.00;99.90
34985;DHT22;21190;58.750;17.004;2022-10-14T02:46:23;10.00;99.90
34985;DHT22;21190;58.750;17.004;2022-10-14T02:48:50;9.90;99.90
34985;DHT22;21190;58.750;17.004;2022-10-14T02:51:17;9.90;99.90
34985;DHT22;21190;58.750;17.004;2022-10-14T02:53:44;9.90;99.90
34985;DHT22;21190;58.750;17.004;2022-10-14T02:56:12;9.90;99.90
34985;DHT22;21190;58.750;17.004;2022-10-14T02:58:39;9.90;99.90
34985;DHT22;21190;58.750;17.004;2022-10-14T03:01:05;9.90;99.90
34985;DHT22;21190;58.750;17.004;2022-10-14T03:03:32;9.80;99.90
34985;DHT22;21190;58.750;17.004;2022-10-14T03:05:59;9.80;99.90
34985;DHT22;21190;58.750;17.004;2022-10-14T03:08:26;9.70;99.90
34985;DHT22;21190;58.750;17.004;2022-10-14T03:10:53;9.70;99.90
34985;DHT22;21190;58.750;17.004;2022-10-14T03:13:20;9.60;99.90
34985;DHT22;21190;58.750;17.004;2022-10-14T03:15:47;9.70;99.90
34985;DHT22;21190;58.750;17.004;2022-10-14T03:18:15;9.60;99.90
34985;DHT22;21190;58.750;17.004;2022-10-14T03:20:42;9.60;99.90
34985;DHT22;21190;58.750;17.004;2022-10-14T03:23:10;9.60;99.90
34985;DHT22;21190;58.750;17.004;2022-10-14T03:25:37;9.50;99.90
34985;DHT22;21190;58.750;17.004;2022-10-14T03:28:04;9.50;99.90
34985;DHT22;21190;58.750;17.004;2022-10-14T03:30:31;9.50;99.90
34985;DHT22;21190;58.750;17.004;2022-10-14T03:32:58;9.50;99.90
34985;DHT22;21190;58.750;17.004;2022-10-14T03:35:25;9.40;99.90
34985;DHT22;21190;58.750;17.004;2022-10-14T03:37:52;9.40;99.90
34985;DHT22;21190;58.750;17.004;2022-10-14T03:40:20;9.40;99.90
34985;DHT22;21190;58.750;17.004;2022-10-14T03:42:47;9.40;99.90
34985;DHT22;21190;58.750;17.004;2022-10-14T03:45:15;9.40;99.90
34985;DHT22;21190;58.750;17.004;2022-10-14T03:47:42;9.30;99.90
34985;DHT22;21190;58.750;17.004;2022-10-14T03:50:09;9.30;99.90
34985;DHT22;21190;58.750;17.004;2022-10-14T03:52:36;9.40;99.90
34985;DHT22;21190;58.750;17.004;2022-10-14T03:55:03;9.30;99.90
34985;DHT22;21190;58.750;17.004;2022-10-14T03:57:30;9.30;99.90
34985;DHT22;21190;58.750;17.004;2022-10-14T03:59:56;9.30;99.90
34985;DHT22;21190;58.750;17.004;2022-10-14T04:02:23;9.20;99.90
34985;DHT22;21190;58.750;17.004;2022-10-14T04:04:50;9.20;99.90
34985;DHT22;21190;58.750;17.004;2022-10-14T04:07:17;9.10;99.90
34985;DHT22;21190;58.750;17.004;2022-10-14T04:09:44;9.10;99.90
34985;DHT22;21190;58.750;17.004;2022-10-14T04:12:11;9.10;99.90
34985;DHT22;21190;58.750;17.004;2022-10-14T04:14:38;9.10;99.90
34985;DHT22;21190;58.750;17.004;2022-10-14T04:17:05;9.10;99.90
34985;DHT22;21190;58.750;17.004;2022-10-14T04:19:31;9.00;99.90
34985;DHT22;21190;58.750;17.004;2022-10-14T04:21:58;9.00;99.90
34985;DHT22;21190;58.750;17.004;2022-10-14T04:24:25;9.00;99.90
34985;DHT22;21190;58.750;17.004;2022-10-14T04:26:52;9.00;99.90
34985;DHT22;21190;58.750;17.004;2022-10-14T04:29:19;8.90;99.90
34985;DHT22;21190;58.750;17.004;2022-10-14T04:31:46;8.90;99.90
34985;DHT22;21190;58.750;17.004;2022-10-14T04:34:13;8.90;99.90
34985;DHT22;21190;58.750;17.004;2022-10-14T04:36:40;8.80;99.90
34985;DHT22;21190;58.750;17.004;2022-10-14T04:39:07;8.90;99.90
34985;DHT22;21190;58.750;17.004;2022-10-14T04:41:34;8.80;99.90
34985;DHT22;21190;58.750;17.004;2022-10-14T04:44:01;8.80;99.90
34985;DHT22;21190;58.750;17.004;2022-10-14T04:46:28;8.80;99.90
34985;DHT22;21190;58.750;17.004;2022-10-14T04:48:55;8.80;99.90
34985;DHT22;21190;58.750;17.004;2022-10-14T04:51:22;8.70;99.90
34985;DHT22;21190;58.750;17.004;2022-10-14T04:53:49;8.70;99.90
34985;DHT22;21190;58.750;17.004;2022-10-14T04:56:16;8.70;99.90
34985;DHT22;21190;58.750;17.004;2022-10-14T04:58:43;8.70;99.90
34985;DHT22;21190;58.750;17.004;2022-10-14T05:01:09;8.70;99.90
34985;DHT22;21190;58.750;17.004;2022-10-14T05:03:36;8.70;99.90
34985;DHT22;21190;58.750;17.004;2022-10-14T05:06:11;8.70;99.90
34985;DHT22;21190;58.750;17.004;2022-10-14T05:08:38;8.70;99.90
34985;DHT22;21190;58.750;17.004;2022-10-14T05:11:05;8.70;99.90
34985;DHT22;21190;58.750;17.004;2022-10-14T05:13:32;8.70;99.90
34985;DHT22;21190;58.750;17.004;2022-10-14T05:15:59;8.70;99.90
34985;DHT22;21190;58.750;17.004;2022-10-14T05:18:26;8.70;99.90
34985;DHT22;21190;58.750;17.004;2022-10-14T05:20:53;8.70;99.90
34985;DHT22;21190;58.750;17.004;2022-10-14T05:23:20;8.60;99.90
34985;DHT22;21190;58.750;17.004;2022-10-14T05:25:47;8.60;99.90
34985;DHT22;21190;58.750;17.004;2022-10-14T05:28:14;8.60;99.90
34985;DHT22;21190;58.750;17.004;2022-10-14T05:30:41;8.60;99.90
34985;DHT22;21190;58.750;17.004;2022-10-14T05:33:08;8.60;99.90
34985;DHT22;21190;58.750;17.004;2022-10-14T05:35:35;8.60;99.90
34985;DHT22;21190;58.750;17.004;2022-10-14T05:38:21;8.60;99.90
34985;DHT22;21190;58.750;17.004;2022-10-14T05:40:52;8.60;99.90
34985;DHT22;21190;58.750;17.004;2022-10-14T05:43:19;8.60;99.90
34985;DHT22;21190;58.750;17.004;2022-10-14T05:45:46;8.50;99.90
34985;DHT22;21190;58.750;17.004;2022-10-14T05:48:13;8.50;99.90
34985;DHT22;21190;58.750;17.004;2022-10-14T05:50:40;8.50;99.90
34985;DHT22;21190;58.750;17.004;2022-10-14T05:53:07;8.50;99.90
34985;DHT22;21190;58.750;17.004;2022-10-14T05:55:34;8.40;99.90
34985;DHT22;21190;58.750;17.004;2022-10-14T05:58:01;8.40;99.90
34985;DHT22;21190;58.750;17.004;2022-10-14T06:00:28;8.40;99.90
34985;DHT22;21190;58.750;17.004;2022-10-14T06:02:58;8.40;99.90
34985;DHT22;21190;58.750;17.004;2022-10-14T06:05:25;8.40;99.90
34985;DHT22;21190;58.750;17.004;2022-10-14T06:07:52;8.40;99.90
34985;DHT22;21190;58.750;17.004;2022-10-14T06:10:19;8.40;99.90
34985;DHT22;21190;58.750;17.004;2022-10-14T06:12:46;8.40;99.90
34985;DHT22;21190;58.750;17.004;2022-10-14T06:15:13;8.50;99.90
34985;DHT22;21190;58.750;17.004;2022-10-14T06:17:40;8.50;99.90
34985;DHT22;21190;58.750;17.004;2022-10-14T06:20:07;8.60;99.90
34985;DHT22;21190;58.750;17.004;2022-10-14T06:22:34;8.60;99.90
34985;DHT22;21190;58.750;17.004;2022-10-14T06:25:01;8.60;99.90
34985;DHT22;21190;58.750;17.004;2022-10-14T06:27:30;8.70;99.90
34985;DHT22;21190;58.750;17.004;2022-10-14T06:29:57;8.70;99.90
34985;DHT22;21190;58.750;17.004;2022-10-14T06:32:23;8.70;99.90
34985;DHT22;21190;58.750;17.004;2022-10-14T06:34:50;8.80;99.90
34985;DHT22;21190;58.750;17.004;2022-10-14T06:37:17;8.90;99.90
34985;DHT22;21190;58.750;17.004;2022-10-14T06:39:44;8.90;99.90
34985;DHT22;21190;58.750;17.004;2022-10-14T06:42:11;8.90;99.90
34985;DHT22;21190;58.750;17.004;2022-10-14T06:44:38;9.00;99.90
34985;DHT22;21190;58.750;17.004;2022-10-14T06:47:05;9.00;99.90
34985;DHT22;21190;58.750;17.004;2022-10-14T06:49:32;9.10;99.90
34985;DHT22;21190;58.750;17.004;2022-10-14T06:52:00;9.10;99.90
34985;DHT22;21190;58.750;17.004;2022-10-14T06:54:26;9.20;99.90
34985;DHT22;21190;58.750;17.004;2022-10-14T06:56:53;9.20;99.90
34985;DHT22;21190;58.750;17.004;2022-10-14T06:59:20;9.20;99.90
34985;DHT22;21190;58.750;17.004;2022-10-14T07:01:47;9.20;99.90
34985;DHT22;21190;58.750;17.004;2022-10-14T07:04:14;9.20;99.90
34985;DHT22;21190;58.750;17.004;2022-10-14T07:06:41;9.30;99.90
34985;DHT22;21190;58.750;17.004;2022-10-14T07:09:08;9.30;99.90
34985;DHT22;21190;58.750;17.004;2022-10-14T07:11:35;9.30;99.90
34985;DHT22;21190;58.750;17.004;2022-10-14T07:14:02;9.30;99.90
34985;DHT22;21190;58.750;17.004;2022-10-14T07:16:29;9.30;99.90
34985;DHT22;21190;58.750;17.004;2022-10-14T07:18:56;9.40;99.90
34985;DHT22;21190;58.750;17.004;2022-10-14T07:21:22;9.40;99.90
34985;DHT22;21190;58.750;17.004;2022-10-14T07:23:49;9.40;99.90
34985;DHT22;21190;58.750;17.004;2022-10-14T07:26:17;9.40;99.90
34985;DHT22;21190;58.750;17.004;2022-10-14T07:28:44;9.40;99.90
34985;DHT22;21190;58.750;17.004;2022-10-14T07:31:11;9.40;99.90
34985;DHT22;21190;58.750;17.004;2022-10-14T07:33:39;9.50;99.90
34985;DHT22;21190;58.750;17.004;2022-10-14T07:36:08;9.50;99.90
34985;DHT22;21190;58.750;17.004;2022-10-14T07:38:35;9.60;99.90
34985;DHT22;21190;58.750;17.004;2022-10-14T07:41:10;9.60;99.90
34985;DHT22;21190;58.750;17.004;2022-10-14T07:43:43;9.70;99.90
34985;DHT22;21190;58.750;17.004;2022-10-14T07:46:10;9.70;99.90
34985;DHT22;21190;58.750;17.004;2022-10-14T07:48:38;9.80;99.90
34985;DHT22;21190;58.750;17.004;2022-10-14T07:51:22;9.90;99.90
34985;DHT22;21190;58.750;17.004;2022-10-14T07:53:49;10.00;99.90
34985;DHT22;21190;58.750;17.004;2022-10-14T07:56:19;10.10;99.90
34985;DHT22;21190;58.750;17.004;2022-10-14T07:58:46;10.10;99.90
34985;DHT22;21190;58.750;17.004;2022-10-14T08:01:13;10.20;99.90
34985;DHT22;21190;58.750;17.004;2022-10-14T08:03:42;10.20;99.90
34985;DHT22;21190;58.750;17.004;2022-10-14T08:06:09;10.30;99.90
34985;DHT22;21190;58.750;17.004;2022-10-14T08:08:36;10.30;99.90
34985;DHT22;21190;58.750;17.004;2022-10-14T08:11:03;10.30;99.90
34985;DHT22;21190;58.750;17.004;2022-10-14T08:13:31;10.40;99.90
34985;DHT22;21190;58.750;17.004;2022-10-14T08:15:58;10.50;99.90
34985;DHT22;21190;58.750;17.004;2022-10-14T08:18:25;10.50;99.90
34985;DHT22;21190;58.750;17.004;2022-10-14T08:20:53;10.60;99.90
34985;DHT22;21190;58.750;17.004;2022-10-14T08:23:20;10.60;99.90
34985;DHT22;21190;58.750;17.004;2022-10-14T08:25:47;10.70;99.90
34985;DHT22;21190;58.750;17.004;2022-10-14T08:28:15;10.70;99.90
34985;DHT22;21190;58.750;17.004;2022-10-14T08:30:42;10.80;99.90
34985;DHT22;21190;58.750;17.004;2022-10-14T08:33:08;10.80;99.90
34985;DHT22;21190;58.750;17.004;2022-10-14T08:35:35;10.90;99.90
34985;DHT22;21190;58.750;17.004;2022-10-14T08:38:02;10.90;99.90
34985;DHT22;21190;58.750;17.004;2022-10-14T08:40:41;10.90;99.90
34985;DHT22;21190;58.750;17.004;2022-10-14T08:43:14;11.00;99.90
34985;DHT22;21190;58.750;17.004;2022-10-14T08:45:48;10.90;99.90
34985;DHT22;21190;58.750;17.004;2022-10-14T08:48:18;11.00;99.90
34985;DHT22;21190;58.750;17.004;2022-10-14T08:50:48;11.00;99.90
34985;DHT22;21190;58.750;17.004;2022-10-14T08:53:17;11.10;99.90
34985;DHT22;21190;58.750;17.004;2022-10-14T08:55:46;11.10;99.90
34985;DHT22;21190;58.750;17.004;2022-10-14T09:01:01;11.10;99.90
34985;DHT22;21190;58.750;17.004;2022-10-14T09:03:29;11.20;99.90
34985;DHT22;21190;58.750;17.004;2022-10-14T09:06:03;11.20;99.90
34985;DHT22;21190;58.750;17.004;2022-10-14T09:08:36;11.20;99.90
34985;DHT22;21190;58.750;17.004;2022-10-14T09:11:07;11.30;99.90
34985;DHT22;21190;58.750;17.004;2022-10-14T09:13:37;11.30;99.90
34985;DHT22;21190;58.750;17.004;2022-10-14T09:16:16;11.40;99.90
34985;DHT22;21190;58.750;17.004;2022-10-14T09:19:03;11.50;99.90
34985;DHT22;21190;58.750;17.004;2022-10-14T09:26:50;11.60;99.90
34985;DHT22;21190;58.750;17.004;2022-10-14T09:29:25;11.60;99.90
34985;DHT22;21190;58.750;17.004;2022-10-14T09:31:57;11.60;99.90
34985;DHT22;21190;58.750;17.004;2022-10-14T09:34:27;11.70;99.90
34985;DHT22;21190;58.750;17.004;2022-10-14T09:36:56;11.70;99.90
34985;DHT22;21190;58.750;17.004;2022-10-14T09:39:24;11.80;99.90
34985;DHT22;21190;58.750;17.004;2022-10-14T09:41:51;11.70;99.90
34985;DHT22;21190;58.750;17.004;2022-10-14T09:44:20;11.80;99.90
34985;DHT22;21190;58.750;17.004;2022-10-14T09:46:49;11.70;99.90
34985;DHT22;21190;58.750;17.004;2022-10-14T09:49:22;11.80;99.90
34985;DHT22;21190;58.750;17.004;2022-10-14T09:51:50;11.90;99.90
34985;DHT22;21190;58.750;17.004;2022-10-14T09:54:22;11.90;99.90
34985;DHT22;21190;58.750;17.004;2022-10-14T09:56:56;11.90;99.90
34985;DHT22;21190;58.750;17.004;2022-10-14T09:59:23;12.00;99.90
34985;DHT22;21190;58.750;17.004;2022-10-14T10:01:51;12.10;99.90
34985;DHT22;21190;58.750;17.004;2022-10-14T10:06:54;12.10;99.90
34985;DHT22;21190;58.750;17.004;2022-10-14T10:09:21;12.10;99.90
34985;DHT22;21190;58.750;17.004;2022-10-14T10:11:48;12.10;99.90
34985;DHT22;21190;58.750;17.004;2022-10-14T10:14:16;12.10;99.90
34985;DHT22;21190;58.750;17.004;2022-10-14T10:16:46;12.10;99.90
34985;DHT22;21190;58.750;17.004;2022-10-14T10:21:45;12.10;99.90
34985;DHT22;21190;58.750;17.004;2022-10-14T10:24:17;12.10;99.90
34985;DHT22;21190;58.750;17.004;2022-10-14T10:26:46;12.20;99.90
34985;DHT22;21190;58.750;17.004;2022-10-14T10:29:26;12.10;99.90
34985;DHT22;21190;58.750;17.004;2022-10-14T10:32:09;12.20;99.90
34985;DHT22;21190;58.750;17.004;2022-10-14T10:40:07;12.30;99.90
34985;DHT22;21190;58.750;17.004;2022-10-14T10:45:16;12.40;99.90
34985;DHT22;21190;58.750;17.004;2022-10-14T10:47:57;12.40;99.90
34985;DHT22;21190;58.750;17.004;2022-10-14T11:03:48;12.70;99.90
34985;DHT22;21190;58.750;17.004;2022-10-14T11:07:20;12.80;99.90
34985;DHT22;21190;58.750;17.004;2022-10-14T11:15:11;12.70;99.90
34985;DHT22;21190;58.750;17.004;2022-10-14T11:22:49;12.80;99.90
34985;DHT22;21190;58.750;17.004;2022-10-14T11:33:09;12.80;99.90
34985;DHT22;21190;58.750;17.004;2022-10-14T11:35:46;12.80;99.90
34985;DHT22;21190;58.750;17.004;2022-10-14T11:41:08;12.80;99.90
34985;DHT22;21190;58.750;17.004;2022-10-14T11:46:11;12.80;99.90
34985;DHT22;21190;58.750;17.004;2022-10-14T11:57:11;12.90;99.90
34985;DHT22;21190;58.750;17.004;2022-10-14T12:01:52;13.00;99.90
34985;DHT22;21190;58.750;17.004;2022-10-14T12:04:27;13.10;99.90
34985;DHT22;21190;58.750;17.004;2022-10-14T12:07:03;13.10;99.90
34985;DHT22;21190;58.750;17.004;2022-10-14T12:09:34;13.10;99.90
34985;DHT22;21190;58.750;17.004;2022-10-14T12:12:06;13.20;99.90
34985;DHT22;21190;58.750;17.004;2022-10-14T12:17:10;13.10;99.90
34985;DHT22;21190;58.750;17.004;2022-10-14T12:19:44;13.10;99.90
34985;DHT22;21190;58.750;17.004;2022-10-14T12:22:15;13.20;99.90
34985;DHT22;21190;58.750;17.004;2022-10-14T12:24:46;13.20;99.90
34985;DHT22;21190;58.750;17.004;2022-10-14T12:27:14;13.30;99.90
34985;DHT22;21190;58.750;17.004;2022-10-14T12:29:42;13.30;99.90
34985;DHT22;21190;58.750;17.004;2022-10-14T12:34:52;13.40;99.90
34985;DHT22;21190;58.750;17.004;2022-10-14T12:37:38;13.40;99.90
34985;DHT22;21190;58.750;17.004;2022-10-14T12:45:13;13.50;99.90
34985;DHT22;21190;58.750;17.004;2022-10-14T12:47:41;13.40;99.90
34985;DHT22;21190;58.750;17.004;2022-10-14T12:52:39;13.50;99.90
34985;DHT22;21190;58.750;17.004;2022-10-14T12:55:07;13.40;99.90
34985;DHT22;21190;58.750;17.004;2022-10-14T12:57:35;13.50;99.90
34985;DHT22;21190;58.750;17.004;2022-10-14T13:02:50;13.40;99.90
34985;DHT22;21190;58.750;17.004;2022-10-14T13:05:34;13.50;99.90
34985;DHT22;21190;58.750;17.004;2022-10-14T13:15:57;13.50;99.90
34985;DHT22;21190;58.750;17.004;2022-10-14T13:18:31;13.50;99.90
34985;DHT22;21190;58.750;17.004;2022-10-14T13:20:58;13.50;99.90
34985;DHT22;21190;58.750;17.004;2022-10-14T13:23:45;13.50;99.90
34985;DHT22;21190;58.750;17.004;2022-10-14T13:26:27;13.50;99.90
34985;DHT22;21190;58.750;17.004;2022-10-14T13:29:04;13.50;99.90
34985;DHT22;21190;58.750;17.004;2022-10-14T13:31:39;13.40;99.90
34985;DHT22;21190;58.750;17.004;2022-10-14T13:34:15;13.50;99.90
34985;DHT22;21190;58.750;17.004;2022-10-14T13:36:50;13.50;99.90
34985;DHT22;21190;58.750;17.004;2022-10-14T13:39:20;13.50;99.90
34985;DHT22;21190;58.750;17.004;2022-10-14T13:41:47;13.50;99.90
34985;DHT22;21190;58.750;17.004;2022-10-14T13:44:14;13.50;99.90
34985;DHT22;21190;58.750;17.004;2022-10-14T13:46:44;13.50;99.90
34985;DHT22;21190;58.750;17.004;2022-10-14T13:49:12;13.40;99.90
34985;DHT22;21190;58.750;17.004;2022-10-14T13:54:21;13.50;99.90
34985;DHT22;21190;58.750;17.004;2022-10-14T13:59:44;13.40;99.90
34985;DHT22;21190;58.750;17.004;2022-10-14T14:02:31;13.40;99.90
34985;DHT22;21190;58.750;17.004;2022-10-14T14:04:59;13.40;99.90
34985;DHT22;21190;58.750;17.004;2022-10-14T14:07:33;13.30;99.90
34985;DHT22;21190;58.750;17.004;2022-10-14T14:10:21;13.30;99.90
34985;DHT22;21190;58.750;17.004;2022-10-14T14:12:49;13.30;99.90
34985;DHT22;21190;58.750;17.004;2022-10-14T14:15:17;13.30;99.90
34985;DHT22;21190;58.750;17.004;2022-10-14T14:17:45;13.20;99.90
34985;DHT22;21190;58.750;17.004;2022-10-14T14:20:12;13.20;99.90
34985;DHT22;21190;58.750;17.004;2022-10-14T14:22:41;13.20;99.90
34985;DHT22;21190;58.750;17.004;2022-10-14T14:25:11;13.20;99.90
34985;DHT22;21190;58.750;17.004;2022-10-14T14:28:02;13.20;99.90
34985;DHT22;21190;58.750;17.004;2022-10-14T14:30:32;13.20;99.90
34985;DHT22;21190;58.750;17.004;2022-10-14T14:33:00;13.10;99.90
34985;DHT22;21190;58.750;17.004;2022-10-14T14:35:28;13.10;99.90
34985;DHT22;21190;58.750;17.004;2022-10-14T14:37:54;13.10;99.90
34985;DHT22;21190;58.750;17.004;2022-10-14T14:40:26;13.10;99.90
34985;DHT22;21190;58.750;17.004;2022-10-14T14:42:54;13.10;99.90
34985;DHT22;21190;58.750;17.004;2022-10-14T14:45:26;13.10;99.90
34985;DHT22;21190;58.750;17.004;2022-10-14T14:48:00;13.10;99.90
34985;DHT22;21190;58.750;17.004;2022-10-14T14:50:30;13.10;99.90
34985;DHT22;21190;58.750;17.004;2022-10-14T14:53:40;13.10;99.90
34985;DHT22;21190;58.750;17.004;2022-10-14T15:00:52;13.00;99.90
34985;DHT22;21190;58.750;17.004;2022-10-14T15:03:21;13.00;99.90
34985;DHT22;21190;58.750;17.004;2022-10-14T15:05:49;13.10;99.90
34985;DHT22;21190;58.750;17.004;2022-10-14T15:08:20;13.00;99.90
34985;DHT22;21190;58.750;17.004;2022-10-14T15:10:48;13.00;99.90
34985;DHT22;21190;58.750;17.004;2022-10-14T15:13:23;13.00;99.90
34985;DHT22;21190;58.750;17.004;2022-10-14T15:15:51;13.00;99.90
34985;DHT22;21190;58.750;17.004;2022-10-14T15:18:25;12.90;99.90
34985;DHT22;21190;58.750;17.004;2022-10-14T15:21:10;12.90;99.90
34985;DHT22;21190;58.750;17.004;2022-10-14T15:29:10;12.90;99.90
34985;DHT22;21190;58.750;17.004;2022-10-14T15:31:38;12.90;99.90
34985;DHT22;21190;58.750;17.004;2022-10-14T15:34:13;12.80;99.90
34985;DHT22;21190;58.750;17.004;2022-10-14T15:36:41;12.80;99.90
34985;DHT22;21190;58.750;17.004;2022-10-14T15:39:09;12.80;99.90
34985;DHT22;21190;58.750;17.004;2022-10-14T15:41:37;12.70;99.90
34985;DHT22;21190;58.750;17.004;2022-10-14T15:44:04;12.70;99.90
34985;DHT22;21190;58.750;17.004;2022-10-14T15:46:32;12.70;99.90
34985;DHT22;21190;58.750;17.004;2022-10-14T15:49:23;12.70;99.90
34985;DHT22;21190;58.750;17.004;2022-10-14T15:51:53;12.70;99.90
34985;DHT22;21190;58.750;17.004;2022-10-14T15:54:20;12.60;99.90
34985;DHT22;21190;58.750;17.004;2022-10-14T15:56:46;12.60;99.90
34985;DHT22;21190;58.750;17.004;2022-10-14T15:59:13;12.60;99.90
34985;DHT22;21190;58.750;17.004;2022-10-14T16:01:42;12.60;99.90
34985;DHT22;21190;58.750;17.004;2022-10-14T16:04:17;12.60;99.90
34985;DHT22;21190;58.750;17.004;2022-10-14T16:06:45;12.50;99.90
34985;DHT22;21190;58.750;17.004;2022-10-14T16:09:12;12.40;99.90
34985;DHT22;21190;58.750;17.004;2022-10-14T16:11:39;12.50;99.90
34985;DHT22;21190;58.750;17.004;2022-10-14T16:14:07;12.40;99.90
34985;DHT22;21190;58.750;17.004;2022-10-14T16:16:35;12.40;99.90
34985;DHT22;21190;58.750;17.004;2022-10-14T16:19:02;12.40;99.90
34985;DHT22;21190;58.750;17.004;2022-10-14T16:21:30;12.30;99.90
34985;DHT22;21190;58.750;17.004;2022-10-14T16:23:57;12.30;99.90
34985;DHT22;21190;58.750;17.004;2022-10-14T16:26:24;12.20;99.90
34985;DHT22;21190;58.750;17.004;2022-10-14T16:28:51;12.20;99.90
34985;DHT22;21190;58.750;17.004;2022-10-14T16:31:18;12.10;99.90
34985;DHT22;21190;58.750;17.004;2022-10-14T16:33:50;12.10;99.90
34985;DHT22;21190;58.750;17.004;2022-10-14T16:36:17;12.10;99.90
34985;DHT22;21190;58.750;17.004;2022-10-14T16:38:44;12.00;99.90
34985;DHT22;21190;58.750;17.004;2022-10-14T16:41:11;12.00;99.90
34985;DHT22;21190;58.750;17.004;2022-10-14T16:43:38;12.00;99.90
34985;DHT22;21190;58.750;17.004;2022-10-14T16:46:05;11.90;99.90
34985;DHT22;21190;58.750;17.004;2022-10-14T16:48:37;11.80;99.90
34985;DHT22;21190;58.750;17.004;2022-10-14T16:51:04;11.80;99.90
34985;DHT22;21190;58.750;17.004;2022-10-14T16:53:31;11.80;99.90
34985;DHT22;21190;58.750;17.004;2022-10-14T16:56:12;11.80;99.90
34985;DHT22;21190;58.750;17.004;2022-10-14T16:58:58;11.70;99.90
34985;DHT22;21190;58.750;17.004;2022-10-14T17:01:25;11.70;99.90
34985;DHT22;21190;58.750;17.004;2022-10-14T17:03:53;11.70;99.90
34985;DHT22;21190;58.750;17.004;2022-10-14T17:06:21;11.60;99.90
34985;DHT22;21190;58.750;17.004;2022-10-14T17:08:50;11.60;99.90
34985;DHT22;21190;58.750;17.004;2022-10-14T17:11:17;11.60;99.90
34985;DHT22;21190;58.750;17.004;2022-10-14T17:13:44;11.60;99.90
34985;DHT22;21190;58.750;17.004;2022-10-14T17:16:11;11.60;99.90
34985;DHT22;21190;58.750;17.004;2022-10-14T17:18:38;11.60;99.90
34985;DHT22;21190;58.750;17.004;2022-10-14T17:21:05;11.50;99.90
34985;DHT22;21190;58.750;17.004;2022-10-14T17:23:33;11.50;99.90
34985;DHT22;21190;58.750;17.004;2022-10-14T17:26:01;11.50;99.90
34985;DHT22;21190;58.750;17.004;2022-10-14T17:28:27;11.50;99.90
34985;DHT22;21190;58.750;17.004;2022-10-14T17:30:56;11.50;99.90
34985;DHT22;21190;58.750;17.004;2022-10-14T17:33:23;11.50;99.90
34985;DHT22;21190;58.750;17.004;2022-10-14T17:35:57;11.40;99.90
34985;DHT22;21190;58.750;17.004;2022-10-14T17:38:25;11.40;99.90
34985;DHT22;21190;58.750;17.004;2022-10-14T17:41:02;11.40;99.90
34985;DHT22;21190;58.750;17.004;2022-10-14T17:43:29;11.30;99.90
34985;DHT22;21190;58.750;17.004;2022-10-14T17:46:00;11.30;99.90
34985;DHT22;21190;58.750;17.004;2022-10-14T17:48:28;11.30;99.90
34985;DHT22;21190;58.750;17.004;2022-10-14T17:50:55;11.30;99.90
34985;DHT22;21190;58.750;17.004;2022-10-14T17:53:22;11.20;99.90